Time;durP1;ratioP1;P1;durP2;ratioP2;P2;SDS_P1;SDS_P2;PMS_P1;PMS_P2;Temp;Humidity;BMP_temperature;BMP_pressure;BME280_temperature;BME280_humidity;BME280_pressure;Samples;Min_cycle;Max_cycle;Signal;HPM_P1;HPM_P2
2022/07/02 00:01:49;;;;;;;;;;;;;;;27.61;37.71;100770.00;5075385;28;1064;-34
2022/07/02 00:04:15;;;;;;;;;;;;;;;27.61;37.08;100770.00;5077127;28;1139;-32
2022/07/02 00:06:40;;;;;;;;;;;;;;;27.58;37.37;100765.78;5078655;28;827;-33
2022/07/02 00:09:05;;;;;;;;;;;;;;;27.56;37.21;100764.31;5061512;28;1179;-34
2022/07/02 00:11:31;;;;;;;;;;;;;;;27.62;37.74;100771.66;5061332;28;946;-34
2022/07/02 00:13:56;;;;;;;;;;;;;;;27.59;37.22;100767.47;5079089;28;1009;-35
2022/07/02 00:16:21;;;;;;;;;;;;;;;27.62;37.19;100761.72;5061418;28;1898;-31
2022/07/02 00:18:47;;;;;;;;;;;;;;;27.67;37.37;100763.84;5062527;28;841;-32
2022/07/02 00:21:12;;;;;;;;;;;;;;;27.56;37.58;100761.59;5081378;28;1524;-32
2022/07/02 00:23:38;;;;;;;;;;;;;;;27.61;37.42;100756.50;5079019;28;1072;-32
2022/07/02 00:26:03;;;;;;;;;;;;;;;27.64;37.21;100756.13;5074867;28;1217;-36
2022/07/02 00:28:28;;;;;;;;;;;;;;;27.64;37.42;100756.13;5078783;28;989;-36
2022/07/02 00:30:54;;;;;;;;;;;;;;;27.58;37.34;100768.50;5084111;28;992;-31
2022/07/02 00:33:19;;;;;;;;;;;;;;;27.60;37.22;100771.00;5078471;28;981;-33
2022/07/02 00:35:45;;;;;;;;;;;;;;;27.78;38.43;100764.44;5060166;28;1901;-31
2022/07/02 00:38:10;;;;;;;;;;;;;;;27.67;38.00;100760.28;5078704;28;1036;-33
2022/07/02 00:40:36;;;;;;;;;;;;;;;27.67;37.69;100763.00;5078762;28;973;-35
2022/07/02 00:43:01;;;;;;;;;;;;;;;27.65;37.38;100757.78;5065054;28;837;-34
2022/07/02 00:45:26;;;;;;;;;;;;;;;27.67;38.19;100763.00;5078195;28;1033;-33
2022/07/02 00:47:53;;;;;;;;;;;;;;;27.65;38.18;100762.34;5078410;28;1124;-33
2022/07/02 00:50:18;;;;;;;;;;;;;;;27.61;38.40;100768.13;5075017;28;929;-31
2022/07/02 00:52:43;;;;;;;;;;;;;;;27.68;38.44;100764.66;5064346;28;1072;-34
2022/07/02 00:55:08;;;;;;;;;;;;;;;27.68;38.05;100764.66;5077606;28;1175;-33
2022/07/02 00:57:34;;;;;;;;;;;;;;;27.71;37.71;100765.16;5078089;28;1979;-33
2022/07/02 00:59:59;;;;;;;;;;;;;;;27.71;37.56;100775.16;5059752;28;1215;-31
2022/07/02 01:02:25;;;;;;;;;;;;;;;27.74;37.61;100769.38;5085526;28;953;-31
2022/07/02 01:04:50;;;;;;;;;;;;;;;27.74;37.88;100767.50;5066292;28;980;-35
2022/07/02 01:07:16;;;;;;;;;;;;;;;27.73;37.99;100770.38;5060035;28;929;-31
2022/07/02 01:12:29;;;;;;;;;;;;;;;27.65;38.57;100765.88;5077647;28;1210;-32
2022/07/02 01:14:55;;;;;;;;;;;;;;;27.72;38.22;100771.41;5077805;28;985;-32
2022/07/02 01:17:20;;;;;;;;;;;;;;;27.76;37.95;100767.31;5077648;28;1902;-33
2022/07/02 01:19:46;;;;;;;;;;;;;;;27.75;37.80;100766.47;5075503;28;1164;-33
2022/07/02 01:22:18;;;;;;;;;;;;;;;27.75;38.10;100768.34;5071300;28;855;-32
2022/07/02 01:24:44;;;;;;;;;;;;;;;27.72;38.08;100772.25;5076388;28;1504;-35
2022/07/02 01:27:10;;;;;;;;;;;;;;;27.75;38.08;100766.47;5077689;28;1005;-34
2022/07/02 01:29:35;;;;;;;;;;;;;;;27.80;38.21;100773.19;5088321;28;1064;-33
2022/07/02 01:32:01;;;;;;;;;;;;;;;27.76;38.11;100778.09;5077524;28;1056;-33
2022/07/02 01:34:26;;;;;;;;;;;;;;;27.77;38.08;100770.84;5083079;28;1115;-34
2022/07/02 01:36:51;;;;;;;;;;;;;;;27.89;38.03;100768.53;5076971;28;1905;-35
2022/07/02 01:39:22;;;;;;;;;;;;;;;27.80;37.83;100770.47;5077526;28;1072;-31
2022/07/02 01:41:47;;;;;;;;;;;;;;;27.79;37.86;100766.09;5077020;28;1085;-33
2022/07/02 01:44:13;;;;;;;;;;;;;;;27.81;37.79;100773.00;5076788;28;1083;-36
2022/07/02 01:46:38;;;;;;;;;;;;;;;27.84;37.59;100782.59;5079141;28;1052;-30
2022/07/02 01:49:04;;;;;;;;;;;;;;;27.83;37.71;100781.75;5077228;28;1036;-35
2022/07/02 01:51:29;;;;;;;;;;;;;;;27.81;37.30;100780.28;5076842;28;973;-33
2022/07/02 01:53:55;;;;;;;;;;;;;;;27.86;37.24;100775.16;5077391;28;1057;-33
2022/07/02 01:56:20;;;;;;;;;;;;;;;27.84;37.63;100772.59;5076481;28;1979;-33
2022/07/02 01:58:46;;;;;;;;;;;;;;;27.87;37.66;100776.81;5076821;28;1179;-32
2022/07/02 02:01:11;;;;;;;;;;;;;;;27.82;38.17;100773.84;5082857;28;960;-34
2022/07/02 02:03:36;;;;;;;;;;;;;;;27.80;37.61;100778.59;5076848;28;1168;-34
2022/07/02 02:06:02;;;;;;;;;;;;;;;27.79;37.53;100779.63;5076672;28;1076;-33
2022/07/02 02:08:27;;;;;;;;;;;;;;;27.80;37.54;100779.44;5076898;28;977;-35
2022/07/02 02:10:52;;;;;;;;;;;;;;;27.85;37.81;100776.16;5076967;28;1131;-35
2022/07/02 02:13:18;;;;;;;;;;;;;;;27.85;37.50;100778.88;5082490;28;865;-34
2022/07/02 02:15:43;;;;;;;;;;;;;;;27.91;37.04;100772.69;5076323;28;1898;-34
2022/07/02 02:18:08;;;;;;;;;;;;;;;27.89;36.97;100774.78;5076543;28;1443;-31
2022/07/02 02:20:34;;;;;;;;;;;;;;;27.90;37.51;100781.84;5076928;28;945;-31
2022/07/02 02:23:01;;;;;;;;;;;;;;;27.91;37.53;100786.22;5077751;28;1215;-34
2022/07/02 02:25:26;;;;;;;;;;;;;;;27.84;37.76;100788.00;5075989;28;837;-33
2022/07/02 02:27:51;;;;;;;;;;;;;;;27.84;37.87;100788.00;5075747;28;1088;-32
2022/07/02 02:30:17;;;;;;;;;;;;;;;27.90;37.56;100791.81;5076816;28;1052;-32
2022/07/02 02:32:42;;;;;;;;;;;;;;;27.92;37.84;100787.06;5076277;28;1040;-30
2022/07/02 02:35:07;;;;;;;;;;;;;;;27.89;37.66;100792.84;5076431;28;1013;-36
2022/07/02 02:37:32;;;;;;;;;;;;;;;27.85;37.69;100803.19;5080641;28;1961;-33
2022/07/02 02:39:58;;;;;;;;;;;;;;;27.84;37.63;100799.63;5077319;28;1221;-33
2022/07/02 02:42:23;;;;;;;;;;;;;;;27.86;37.93;100794.91;5076790;28;946;-33
2022/07/02 02:44:48;;;;;;;;;;;;;;;27.90;37.83;100798.06;5076150;28;997;-33
2022/07/02 02:47:13;;;;;;;;;;;;;;;27.87;38.11;100799.28;5076005;28;1103;-35
2022/07/02 02:49:39;;;;;;;;;;;;;;;27.88;37.57;100808.22;5076194;28;1010;-33
2022/07/02 02:52:04;;;;;;;;;;;;;;;27.83;37.70;100808.78;5075848;28;958;-33
2022/07/02 02:54:30;;;;;;;;;;;;;;;27.88;37.85;100816.34;5076203;28;973;-36
2022/07/02 02:56:55;;;;;;;;;;;;;;;27.87;37.50;100817.38;5087273;28;1902;-34
2022/07/02 02:59:21;;;;;;;;;;;;;;;27.89;37.80;100817.19;5076213;28;985;-31
2022/07/02 03:01:46;;;;;;;;;;;;;;;27.84;37.81;100821.25;5076038;28;1128;-35
2022/07/02 03:04:11;;;;;;;;;;;;;;;27.83;38.17;100821.44;5082375;28;961;-30
2022/07/02 03:06:36;;;;;;;;;;;;;;;27.82;37.92;100825.19;5076013;28;842;-36
2022/07/02 03:09:02;;;;;;;;;;;;;;;27.84;38.39;100823.97;5076269;28;1171;-32
2022/07/02 03:11:27;;;;;;;;;;;;;;;27.83;37.68;100832.25;5076183;28;1049;-33
2022/07/02 03:13:53;;;;;;;;;;;;;;;27.82;37.85;100822.50;5075737;28;1127;-32
2022/07/02 03:16:18;;;;;;;;;;;;;;;27.81;37.93;100828.94;5081771;28;1894;-31
2022/07/02 03:18:43;;;;;;;;;;;;;;;27.80;37.64;100829.94;5083961;28;952;-36
2022/07/02 03:21:09;;;;;;;;;;;;;;;27.79;37.94;100836.38;5076285;28;1535;-33
2022/07/02 03:23:34;;;;;;;;;;;;;;;27.64;37.85;100837.19;5076742;28;977;-31
2022/07/02 03:25:59;;;;;;;;;;;;;;;27.81;37.47;100837.03;5076427;28;933;-32
2022/07/02 03:28:25;;;;;;;;;;;;;;;27.90;37.60;100835.91;5082702;28;1499;-30
2022/07/02 03:30:50;;;;;;;;;;;;;;;27.91;37.20;100840.28;5077719;28;1535;-32
2022/07/02 03:33:15;;;;;;;;;;;;;;;27.85;37.22;100836.47;5068263;28;1317;-29
2022/07/02 03:35:40;;;;;;;;;;;;;;;27.97;37.69;100838.72;5069084;28;1227;-34
2022/07/02 03:38:06;;;;;;;;;;;;;;;27.96;37.39;100842.44;5068057;28;1897;-35
2022/07/02 03:40:31;;;;;;;;;;;;;;;27.56;40.56;100843.50;5082126;28;1255;-30
2022/07/02 03:42:56;;;;;;;;;;;;;;;26.84;45.26;100842.88;5079786;28;1139;-33
2022/07/02 03:45:22;;;;;;;;;;;;;;;26.64;46.17;100838.75;5079958;28;981;-32
2022/07/02 03:47:47;;;;;;;;;;;;;;;26.56;46.35;100838.81;5079745;28;1214;-32
2022/07/02 03:50:13;;;;;;;;;;;;;;;26.31;48.14;100843.47;5079342;28;973;-32
2022/07/02 03:52:39;;;;;;;;;;;;;;;26.26;49.22;100839.44;5079546;28;1009;-32
2022/07/02 03:55:05;;;;;;;;;;;;;;;26.41;47.11;100838.72;5086796;28;1144;-31
2022/07/02 03:57:30;;;;;;;;;;;;;;;27.04;44.51;100845.97;5079088;28;1964;-49
2022/07/02 03:59:55;;;;;;;;;;;;;;;27.27;42.69;100842.41;5075295;28;1212;-42
2022/07/02 04:02:21;;;;;;;;;;;;;;;27.16;41.92;100842.84;5071192;28;982;-41
2022/07/02 04:04:46;;;;;;;;;;;;;;;27.18;44.85;100848.88;5079505;28;1020;-37
2022/07/02 04:07:11;;;;;;;;;;;;;;;27.21;42.86;100848.56;5079219;28;2270;-48
2022/07/02 04:09:37;;;;;;;;;;;;;;;27.32;40.67;100845.41;5060971;28;2048;-47
2022/07/02 04:12:02;;;;;;;;;;;;;;;27.35;41.60;100847.75;5079345;28;1862;-46
2022/07/02 04:14:27;;;;;;;;;;;;;;;27.49;41.69;100850.66;5078444;28;2049;-42
2022/07/02 04:16:53;;;;;;;;;;;;;;;27.61;40.05;100856.47;5085676;28;2094;-44
2022/07/02 04:19:18;;;;;;;;;;;;;;;27.68;40.81;100864.66;5078921;28;2188;-48
2022/07/02 04:21:43;;;;;;;;;;;;;;;27.82;41.44;100868.44;5078926;28;2089;-46
2022/07/02 04:24:08;;;;;;;;;;;;;;;27.76;40.72;100867.31;5079374;28;1040;-43
2022/07/02 04:26:34;;;;;;;;;;;;;;;27.70;40.80;100870.75;5078503;28;1476;-45
2022/07/02 04:28:59;;;;;;;;;;;;;;;27.81;42.53;100864.91;5079454;28;953;-42
2022/07/02 04:31:24;;;;;;;;;;;;;;;27.84;40.73;100867.22;5078836;28;997;-39
2022/07/02 04:33:50;;;;;;;;;;;;;;;27.81;41.04;100878.41;5086837;28;972;-40
2022/07/02 04:36:15;;;;;;;;;;;;;;;27.78;43.45;100880.66;5080751;28;1965;-44
2022/07/02 04:38:40;;;;;;;;;;;;;;;27.75;43.62;100877.28;5079024;28;1080;-42
2022/07/02 04:41:06;;;;;;;;;;;;;;;27.75;43.45;100874.59;5078496;28;1088;-42
2022/07/02 04:43:31;;;;;;;;;;;;;;;27.89;43.56;100890.16;5079227;28;1009;-41
2022/07/02 04:45:56;;;;;;;;;;;;;;;27.79;41.59;100877.78;5091370;28;923;-42
2022/07/02 04:48:21;;;;;;;;;;;;;;;27.83;42.73;100875.50;5072291;28;933;-43
2022/07/02 04:50:47;;;;;;;;;;;;;;;27.89;41.90;100876.66;5078274;28;953;-43
2022/07/02 04:53:12;;;;;;;;;;;;;;;27.89;41.84;100882.91;5087283;28;2526;-44
2022/07/02 04:55:37;;;;;;;;;;;;;;;27.87;41.05;100883.09;5085955;28;1817;-43
2022/07/02 04:58:03;;;;;;;;;;;;;;;27.91;41.58;100883.53;5081656;28;1902;-46
2022/07/02 05:00:28;;;;;;;;;;;;;;;27.92;40.97;100885.25;5077745;28;1345;-42
2022/07/02 05:02:53;;;;;;;;;;;;;;;27.96;40.79;100891.94;5076756;28;1250;-44
2022/07/02 05:05:19;;;;;;;;;;;;;;;28.01;40.37;100893.25;5077497;28;1100;-42
2022/07/02 05:07:44;;;;;;;;;;;;;;;27.97;40.12;100892.78;5074697;28;1196;-45
2022/07/02 05:10:09;;;;;;;;;;;;;;;27.96;40.56;100894.66;5078051;28;1277;-43
2022/07/02 05:12:35;;;;;;;;;;;;;;;27.99;40.61;100898.84;5077799;28;1282;-43
2022/07/02 05:15:00;;;;;;;;;;;;;;;28.08;39.83;100899.59;5077991;28;1290;-43
2022/07/02 05:17:25;;;;;;;;;;;;;;;28.01;39.86;100904.91;5077872;28;1985;-44
2022/07/02 05:19:50;;;;;;;;;;;;;;;28.06;40.00;100901.66;5077696;28;1239;-44
2022/07/02 05:22:16;;;;;;;;;;;;;;;28.01;39.92;100898.66;5082213;28;2570;-45
2022/07/02 05:24:41;;;;;;;;;;;;;;;28.05;39.97;100899.97;5077138;28;1029;-44
2022/07/02 05:27:06;;;;;;;;;;;;;;;28.06;39.74;100904.38;5077652;28;1084;-42
2022/07/02 05:29:32;;;;;;;;;;;;;;;28.01;39.49;100901.38;5077621;28;1147;-42
2022/07/02 05:31:57;;;;;;;;;;;;;;;28.09;39.83;100904.00;5077012;28;1313;-42
2022/07/02 05:34:22;;;;;;;;;;;;;;;28.10;40.10;100908.38;5077380;28;1163;-44
2022/07/02 05:36:48;;;;;;;;;;;;;;;28.05;41.05;100902.66;5076597;28;1898;-42
2022/07/02 05:39:13;;;;;;;;;;;;;;;28.01;41.43;100910.31;5077324;28;1226;-43
2022/07/02 05:41:38;;;;;;;;;;;;;;;28.08;41.83;100913.09;5077158;28;1472;-45
2022/07/02 05:44:04;;;;;;;;;;;;;;;28.15;42.03;100913.22;5077165;28;1127;-41
2022/07/02 05:46:29;;;;;;;;;;;;;;;28.13;42.53;100915.28;5075986;28;1100;-45
2022/07/02 05:48:54;;;;;;;;;;;;;;;28.14;43.76;100911.53;5077029;28;1100;-44
2022/07/02 05:51:19;;;;;;;;;;;;;;;28.13;44.06;100926.09;5076684;28;1164;-43
2022/07/02 05:53:45;;;;;;;;;;;;;;;28.22;43.47;100925.81;5070136;28;2437;-42
2022/07/02 05:56:10;;;;;;;;;;;;;;;28.27;42.59;100924.41;5077734;28;1977;-42
2022/07/02 05:58:35;;;;;;;;;;;;;;;28.22;43.31;100925.81;5074826;28;1263;-42
2022/07/02 06:01:01;;;;;;;;;;;;;;;28.20;43.68;100925.16;5075911;28;1282;-43
2022/07/02 06:03:26;;;;;;;;;;;;;;;28.30;44.29;100926.72;5076383;28;1431;-43
2022/07/02 06:08:35;;;;;;;;;;;;;;;28.44;43.49;100930.50;5077209;28;1005;-43
2022/07/02 06:11:00;;;;;;;;;;;;;;;28.44;43.25;100935.91;5072196;28;1028;-43
2022/07/02 06:13:26;;;;;;;;;;;;;;;28.39;44.24;100939.19;5076916;28;1037;-41
2022/07/02 06:15:51;;;;;;;;;;;;;;;28.35;44.45;100935.16;5077171;28;965;-41
2022/07/02 06:18:16;;;;;;;;;;;;;;;28.41;44.06;100936.28;5077188;28;985;-43
2022/07/02 06:20:42;;;;;;;;;;;;;;;28.40;44.47;100942.72;5077640;28;946;-43
2022/07/02 06:23:07;;;;;;;;;;;;;;;28.48;44.23;100948.88;5054921;28;2514;-44
2022/07/02 06:25:33;;;;;;;;;;;;;;;28.50;44.63;100939.72;5076706;28;1226;-44
2022/07/02 06:27:59;;;;;;;;;;;;;;;28.44;44.31;100944.03;5075997;28;1238;-43
2022/07/02 06:30:25;;;;;;;;;;;;;;;28.48;43.73;100946.16;5076586;28;1223;-43
2022/07/02 06:32:50;;;;;;;;;;;;;;;28.61;43.66;100944.69;5076542;28;1246;-44
2022/07/02 06:35:15;;;;;;;;;;;;;;;28.59;43.66;100946.72;5076517;28;1231;-42
2022/07/02 06:37:40;;;;;;;;;;;;;;;28.60;43.38;100948.41;5076355;28;1894;-41
2022/07/02 06:40:06;;;;;;;;;;;;;;;28.56;43.27;100945.22;5074293;28;1251;-41
2022/07/02 06:42:31;;;;;;;;;;;;;;;28.64;43.04;100943.44;5076579;28;1291;-42
2022/07/02 06:44:57;;;;;;;;;;;;;;;28.62;43.10;100943.63;5076618;28;985;-43
2022/07/02 06:47:23;;;;;;;;;;;;;;;28.71;43.47;100939.78;5086073;28;1465;-42
2022/07/02 06:49:48;;;;;;;;;;;;;;;28.70;42.97;100946.25;5076954;28;985;-43
2022/07/02 06:52:13;;;;;;;;;;;;;;;28.76;43.23;100941.09;5079171;28;2357;-41
2022/07/02 06:54:39;;;;;;;;;;;;;;;28.75;43.37;100950.22;5088593;28;1079;-41
2022/07/02 06:57:04;;;;;;;;;;;;;;;28.67;42.92;100954.75;5076509;28;1910;-42
2022/07/02 06:59:30;;;;;;;;;;;;;;;28.75;43.19;100961.06;5076367;28;1032;-43
2022/07/02 07:01:55;;;;;;;;;;;;;;;28.73;43.42;100950.44;5076431;28;949;-43
2022/07/02 07:04:20;;;;;;;;;;;;;;;28.83;43.02;100953.69;5076324;28;1005;-42
2022/07/02 07:09:14;;;;;;;;;;;;;;;28.83;42.67;100947.41;5076269;28;989;-44
2022/07/02 07:11:39;;;;;;;;;;;;;;;28.83;43.43;100950.97;5076848;28;1052;-42
2022/07/02 07:14:04;;;;;;;;;;;;;;;28.91;43.19;100949.19;5079745;28;977;-42
2022/07/02 07:16:30;;;;;;;;;;;;;;;29.04;42.74;100953.94;5080654;28;1886;-41
2022/07/02 07:19:03;;;;;;;;;;;;;;;28.96;43.20;100952.19;5090519;28;898;-42
2022/07/02 07:21:28;;;;;;;;;;;;;;;28.94;42.98;100955.06;5082391;28;934;-41
2022/07/02 07:23:53;;;;;;;;;;;;;;;29.01;42.95;100952.44;5084641;28;2598;-47
2022/07/02 07:26:18;;;;;;;;;;;;;;;29.02;43.16;100948.72;5080368;28;1068;-43
2022/07/02 07:28:44;;;;;;;;;;;;;;;28.98;43.30;100952.84;5079460;28;1048;-42
2022/07/02 07:31:09;;;;;;;;;;;;;;;28.98;43.37;100952.00;5079319;28;1199;-43
2022/07/02 07:33:34;;;;;;;;;;;;;;;28.96;43.15;100950.28;5078013;28;1187;-42
2022/07/02 07:36:00;;;;;;;;;;;;;;;28.95;43.29;100954.03;5060969;28;1894;-43
2022/07/02 07:38:25;;;;;;;;;;;;;;;29.01;42.77;100957.88;5079345;28;1223;-42
2022/07/02 07:40:51;;;;;;;;;;;;;;;29.07;42.56;100962.53;5079794;28;1266;-42
2022/07/02 07:43:16;;;;;;;;;;;;;;;29.07;43.03;100954.41;5080400;28;1230;-43
2022/07/02 07:45:41;;;;;;;;;;;;;;;29.11;43.06;100959.44;5077261;28;1222;-42
2022/07/02 07:48:06;;;;;;;;;;;;;;;29.09;42.99;100962.34;5079611;28;1207;-43
2022/07/02 07:50:32;;;;;;;;;;;;;;;29.17;42.68;100958.66;5079505;28;1246;-42
2022/07/02 07:52:57;;;;;;;;;;;;;;;29.11;43.24;100965.72;5074741;28;2411;-42
2022/07/02 07:55:22;;;;;;;;;;;;;;;29.11;42.73;100963.00;5079223;28;1163;-44
2022/07/02 07:57:48;;;;;;;;;;;;;;;29.08;43.13;100966.91;5077380;28;1922;-42
2022/07/02 08:00:13;;;;;;;;;;;;;;;29.13;43.16;100969.03;5079604;28;1084;-42
2022/07/02 08:02:39;;;;;;;;;;;;;;;29.16;43.19;100965.94;5079613;28;1056;-42
2022/07/02 08:05:04;;;;;;;;;;;;;;;29.16;43.58;100974.06;5079313;28;1196;-42
2022/07/02 08:07:34;;;;;;;;;;;;;;;29.24;43.12;100972.28;5079031;28;1132;-43
2022/07/02 08:10:00;;;;;;;;;;;;;;;29.25;43.35;100971.25;5083898;28;977;-44
2022/07/02 08:12:25;;;;;;;;;;;;;;;29.08;44.09;100975.03;5079689;28;953;-42
2022/07/02 08:14:50;;;;;;;;;;;;;;;29.15;44.20;100977.81;5079543;28;1235;-42
2022/07/02 08:17:15;;;;;;;;;;;;;;;29.11;44.73;100967.56;5089235;28;1897;-43
2022/07/02 08:19:41;;;;;;;;;;;;;;;29.16;43.44;100976.78;5073981;28;1198;-42
2022/07/02 08:22:06;;;;;;;;;;;;;;;29.07;43.17;100970.66;5070793;28;2327;-43
2022/07/02 08:24:31;;;;;;;;;;;;;;;29.14;43.03;100968.03;5070051;28;1376;-42
2022/07/02 08:26:57;;;;;;;;;;;;;;;29.06;42.69;100968.97;5067831;28;1245;-43
2022/07/02 08:29:22;;;;;;;;;;;;;;;29.11;42.41;100965.72;5062150;28;1258;-42
2022/07/02 08:31:47;;;;;;;;;;;;;;;29.06;42.39;100960.03;5074207;28;1317;-42
2022/07/02 08:34:13;;;;;;;;;;;;;;;29.08;42.80;100975.03;5068964;28;1293;-43
2022/07/02 08:36:38;;;;;;;;;;;;;;;29.13;42.09;100971.75;5066311;28;1957;-42
2022/07/02 08:39:03;;;;;;;;;;;;;;;29.05;42.24;100974.56;5063347;28;1360;-42
2022/07/02 08:41:28;;;;;;;;;;;;;;;29.04;42.79;100979.19;5065254;28;1355;-42
2022/07/02 08:43:54;;;;;;;;;;;;;;;29.07;42.11;100975.22;5047978;28;1297;-42
2022/07/02 08:46:19;;;;;;;;;;;;;;;29.06;42.26;100982.50;5066403;28;1467;-42
2022/07/02 08:48:44;;;;;;;;;;;;;;;29.02;42.05;100983.94;5048288;28;1253;-42
2022/07/02 08:51:10;;;;;;;;;;;;;;;29.06;41.89;100987.09;5078506;28;1152;-43
2022/07/02 08:53:35;;;;;;;;;;;;;;;29.04;41.92;100987.28;5060118;28;2015;-43
2022/07/02 08:56:00;;;;;;;;;;;;;;;29.06;41.79;100987.09;5077049;28;1973;-42
2022/07/02 08:58:26;;;;;;;;;;;;;;;29.05;41.55;100985.41;5060784;28;1077;-44
2022/07/02 09:00:51;;;;;;;;;;;;;;;29.02;41.55;100983.94;5041651;28;1294;-44
2022/07/02 09:03:20;;;;;;;;;;;;;;;29.06;42.30;100971.66;5077850;28;1203;-42
2022/07/02 09:05:47;;;;;;;;;;;;;;;29.00;41.65;100983.28;5078593;28;1183;-42
2022/07/02 09:08:12;;;;;;;;;;;;;;;29.00;41.95;100983.28;5060008;28;1255;-43
2022/07/02 09:10:37;;;;;;;;;;;;;;;29.05;41.41;100985.41;5059749;28;1088;-42
2022/07/02 09:13:03;;;;;;;;;;;;;;;29.11;41.34;100978.41;5059252;28;1255;-42
2022/07/02 09:15:28;;;;;;;;;;;;;;;29.03;41.64;100984.78;5060482;28;1243;-42
2022/07/02 09:17:53;;;;;;;;;;;;;;;29.01;41.28;100979.53;5059188;28;1902;-43
2022/07/02 09:20:19;;;;;;;;;;;;;;;28.99;41.81;100981.59;5077744;28;1235;-43
2022/07/02 09:22:48;;;;;;;;;;;;;;;29.04;41.79;100987.28;5077284;28;1946;-43
2022/07/02 09:25:17;;;;;;;;;;;;;;;29.03;41.37;100984.78;5080107;28;1211;-43
2022/07/02 09:27:45;;;;;;;;;;;;;;;28.98;41.05;100974.50;5074814;28;1076;-42
2022/07/02 09:30:11;;;;;;;;;;;;;;;28.98;41.76;100976.38;5077506;28;1203;-44
2022/07/02 09:32:41;;;;;;;;;;;;;;;29.01;41.09;100974.13;5077849;28;1253;-43
2022/07/02 09:35:07;;;;;;;;;;;;;;;29.07;40.97;100977.94;5077757;28;1262;-43
2022/07/02 09:37:32;;;;;;;;;;;;;;;29.13;40.65;100982.59;5075678;28;1965;-43
2022/07/02 09:40:00;;;;;;;;;;;;;;;29.09;40.49;100984.84;5058901;28;1266;-43
2022/07/02 09:42:29;;;;;;;;;;;;;;;29.23;40.16;100990.41;5077296;28;1210;-42
2022/07/02 09:44:55;;;;;;;;;;;;;;;29.19;40.29;100992.69;5077419;28;1235;-43
2022/07/02 09:47:29;;;;;;;;;;;;;;;29.19;40.32;100987.25;5077402;28;1218;-46
2022/07/02 09:49:55;;;;;;;;;;;;;;;28.90;40.75;100980.84;5077022;28;1187;-43
2022/07/02 09:52:20;;;;;;;;;;;;;;;28.90;40.72;100982.69;5073664;28;2369;-42
2022/07/02 09:54:46;;;;;;;;;;;;;;;28.91;40.74;100978.97;5077267;28;1215;-43
2022/07/02 09:57:11;;;;;;;;;;;;;;;28.53;41.71;100979.97;5055991;28;1909;-43
2022/07/02 09:59:37;;;;;;;;;;;;;;;28.77;40.14;100986.94;5057451;28;1020;-42
2022/07/02 10:02:03;;;;;;;;;;;;;;;28.98;39.53;100996.16;5057457;28;1234;-43
2022/07/02 10:04:28;;;;;;;;;;;;;;;28.93;40.53;100996.69;5062948;28;933;-44
2022/07/02 10:06:54;;;;;;;;;;;;;;;29.06;39.88;100981.69;5065086;28;1197;-43
2022/07/02 10:09:19;;;;;;;;;;;;;;;29.11;39.23;100991.94;5059013;28;1158;-43
2022/07/02 10:11:44;;;;;;;;;;;;;;;29.03;40.25;100995.63;5055508;28;1159;-46
2022/07/02 10:14:10;;;;;;;;;;;;;;;29.14;39.94;100991.56;5057030;28;1229;-44
2022/07/02 10:16:35;;;;;;;;;;;;;;;29.04;40.04;100990.00;5056010;28;1969;-44
2022/07/02 10:19:01;;;;;;;;;;;;;;;28.98;40.51;100992.63;5068454;28;1160;-43
2022/07/02 10:21:26;;;;;;;;;;;;;;;28.99;40.06;100999.72;5063014;28;1008;-45
2022/07/02 10:23:51;;;;;;;;;;;;;;;28.98;40.29;101004.28;5049988;28;2584;-43
2022/07/02 10:26:16;;;;;;;;;;;;;;;28.96;40.25;101000.91;5055349;28;1045;-43
2022/07/02 10:28:42;;;;;;;;;;;;;;;29.01;39.73;101000.38;5056457;28;1072;-43
2022/07/02 10:31:10;;;;;;;;;;;;;;;29.02;39.31;101002.03;5057073;28;985;-43
2022/07/02 10:33:38;;;;;;;;;;;;;;;28.88;40.19;100996.44;5055391;28;1095;-43
2022/07/02 10:36:03;;;;;;;;;;;;;;;28.92;39.97;100999.59;5061104;28;1961;-42
2022/07/02 10:38:33;;;;;;;;;;;;;;;28.95;39.47;100994.66;5055086;28;1021;-44
2022/07/02 10:40:59;;;;;;;;;;;;;;;29.09;39.20;100994.84;5056321;28;1020;-42
2022/07/02 10:43:26;;;;;;;;;;;;;;;29.12;39.64;100993.63;5061767;28;1182;-44
2022/07/02 10:46:13;;;;;;;;;;;;;;;29.19;39.95;100995.38;5070091;28;940;-45
2022/07/02 10:48:48;;;;;;;;;;;;;;;29.12;39.99;100999.03;5063832;28;997;-42
2022/07/02 10:51:20;;;;;;;;;;;;;;;29.11;39.92;100995.50;5056692;28;1012;-43
2022/07/02 10:53:49;;;;;;;;;;;;;;;29.11;40.52;100992.78;5059842;28;2607;-44
2022/07/02 10:56:14;;;;;;;;;;;;;;;29.07;39.84;100986.91;5072120;28;1973;-45
2022/07/02 10:58:41;;;;;;;;;;;;;;;29.00;39.92;100994.13;5077706;28;1261;-42
2022/07/02 11:01:09;;;;;;;;;;;;;;;29.00;40.00;100995.97;5076194;28;997;-45
2022/07/02 11:03:34;;;;;;;;;;;;;;;28.97;39.86;101002.63;5088498;28;1195;-42
2022/07/02 11:06:04;;;;;;;;;;;;;;;28.91;40.42;100997.94;5076536;28;1156;-44
2022/07/02 11:08:43;;;;;;;;;;;;;;;29.03;39.69;100996.44;5075636;28;936;-44
2022/07/02 11:11:08;;;;;;;;;;;;;;;29.01;40.18;100995.78;5058802;28;1132;-43
2022/07/02 11:14:00;;;;;;;;;;;;;;;28.47;40.09;100909.31;5075987;28;1118;-44
2022/07/02 11:16:29;;;;;;;;;;;;;;;29.03;39.92;100995.63;5065405;28;1961;-43
2022/07/02 11:18:55;;;;;;;;;;;;;;;29.11;39.60;100994.66;5070169;28;945;-43
2022/07/02 11:21:21;;;;;;;;;;;;;;;29.02;39.82;100996.63;5078499;28;925;-43
2022/07/02 11:23:46;;;;;;;;;;;;;;;28.96;39.40;100995.50;5079793;28;2527;-44
2022/07/02 11:26:18;;;;;;;;;;;;;;;28.91;40.53;101000.66;5071209;28;1059;-42
2022/07/02 11:28:43;;;;;;;;;;;;;;;28.96;40.18;101004.44;5075349;28;1196;-45
2022/07/02 11:31:10;;;;;;;;;;;;;;;29.11;38.84;101000.06;5052764;28;1248;-43
2022/07/02 11:33:35;;;;;;;;;;;;;;;29.03;39.91;101003.75;5077037;28;1099;-43
2022/07/02 11:36:01;;;;;;;;;;;;;;;29.02;40.08;101002.91;5075990;28;1016;-43
2022/07/02 11:38:26;;;;;;;;;;;;;;;29.01;40.01;101011.22;5075984;28;1971;-46
2022/07/02 11:40:51;;;;;;;;;;;;;;;29.03;40.46;101003.75;5081221;28;1009;-45
2022/07/02 11:43:17;;;;;;;;;;;;;;;29.03;40.17;101007.25;5089119;28;988;-43
2022/07/02 11:45:43;;;;;;;;;;;;;;;29.03;40.43;101006.44;5079818;28;896;-44
2022/07/02 11:48:17;;;;;;;;;;;;;;;29.05;40.25;101009.78;5082153;28;1082;-44
2022/07/02 11:50:42;;;;;;;;;;;;;;;28.99;40.40;101007.84;5074813;28;926;-43
2022/07/02 11:53:08;;;;;;;;;;;;;;;29.02;40.45;101013.72;5068673;28;2515;-46
2022/07/02 11:55:33;;;;;;;;;;;;;;;29.14;39.82;100995.13;5076315;28;1213;-46
2022/07/02 11:57:58;;;;;;;;;;;;;;;29.00;40.88;101001.38;5079358;28;1910;-44
2022/07/02 12:00:32;;;;;;;;;;;;;;;29.00;39.62;101006.81;5084177;28;1047;-44
2022/07/02 12:03:06;;;;;;;;;;;;;;;29.15;40.32;101004.06;5078117;28;1021;-41
2022/07/02 12:05:31;;;;;;;;;;;;;;;29.12;39.59;101001.75;5076669;28;989;-45
2022/07/02 12:07:56;;;;;;;;;;;;;;;29.06;40.21;101006.06;5079508;28;1462;-42
2022/07/02 12:10:22;;;;;;;;;;;;;;;28.99;40.33;101005.97;5079106;28;1123;-42
2022/07/02 12:12:47;;;;;;;;;;;;;;;29.00;40.35;101004.09;5074905;28;1222;-43
2022/07/02 12:15:13;;;;;;;;;;;;;;;29.01;40.69;101000.38;5090680;28;1020;-42
2022/07/02 12:17:48;;;;;;;;;;;;;;;29.10;39.83;101007.34;5079210;28;1966;-40
2022/07/02 12:20:13;;;;;;;;;;;;;;;29.04;40.58;101005.41;5079170;28;1528;-44
2022/07/02 12:22:40;;;;;;;;;;;;;;;29.07;40.68;100994.19;5091974;28;2633;-44
2022/07/02 12:25:05;;;;;;;;;;;;;;;29.14;40.59;100995.13;5091622;28;956;-41
2022/07/02 12:27:34;;;;;;;;;;;;;;;28.92;41.08;100997.75;5078523;28;1136;-42
2022/07/02 12:30:04;;;;;;;;;;;;;;;28.99;41.30;100995.16;5073045;28;997;-44
2022/07/02 12:32:33;;;;;;;;;;;;;;;29.01;41.05;100993.06;5059462;28;1409;-44
2022/07/02 12:35:02;;;;;;;;;;;;;;;28.98;40.71;100993.44;5077214;28;1009;-41
2022/07/02 12:37:28;;;;;;;;;;;;;;;28.99;41.28;100997.84;5088106;28;1901;-42
2022/07/02 12:39:57;;;;;;;;;;;;;;;29.00;40.98;100995.97;5078201;28;1096;-41
2022/07/02 12:42:23;;;;;;;;;;;;;;;28.96;40.85;100995.50;5078795;28;1219;-41
2022/07/02 12:44:55;;;;;;;;;;;;;;;28.92;40.71;100999.59;5078665;28;1076;-44
2022/07/02 12:47:24;;;;;;;;;;;;;;;28.97;40.86;101002.63;5078491;28;1048;-42
2022/07/02 12:49:56;;;;;;;;;;;;;;;29.06;40.77;101003.34;5078190;28;915;-41